sensor_id;sensor_type;location;lat;lon;timestamp;P1;durP1;ratioP1;P2;durP2;ratioP2
66893;SDS011;53801;55.786;49.142;2023-06-10T00:01:58;1.08;;;0.80;;
66893;SDS011;53801;55.786;49.142;2023-06-10T00:04:25;2.60;;;0.82;;
66893;SDS011;53801;55.786;49.142;2023-06-10T00:06:51;1.55;;;1.13;;
66893;SDS011;53801;55.786;49.142;2023-06-10T00:09:16;1.37;;;0.90;;
66893;SDS011;53801;55.786;49.142;2023-06-10T00:11:43;1.00;;;0.90;;
66893;SDS011;53801;55.786;49.142;2023-06-10T00:14:09;2.17;;;1.37;;
66893;SDS011;53801;55.786;49.142;2023-06-10T00:16:35;1.30;;;1.02;;
66893;SDS011;53801;55.786;49.142;2023-06-10T00:19:01;6.82;;;1.20;;
66893;SDS011;53801;55.786;49.142;2023-06-10T00:21:28;4.00;;;1.38;;
66893;SDS011;53801;55.786;49.142;2023-06-10T00:23:53;1.27;;;0.87;;
66893;SDS011;53801;55.786;49.142;2023-06-10T00:26:20;0.95;;;0.82;;
66893;SDS011;53801;55.786;49.142;2023-06-10T00:28:46;2.17;;;1.17;;
66893;SDS011;53801;55.786;49.142;2023-06-10T00:31:12;1.53;;;0.90;;
66893;SDS011;53801;55.786;49.142;2023-06-10T00:33:37;2.63;;;2.43;;
66893;SDS011;53801;55.786;49.142;2023-06-10T00:36:03;4.20;;;3.83;;
66893;SDS011;53801;55.786;49.142;2023-06-10T00:38:28;2.67;;;1.30;;
66893;SDS011;53801;55.786;49.142;2023-06-10T00:40:54;1.67;;;0.90;;
66893;SDS011;53801;55.786;49.142;2023-06-10T00:43:19;2.92;;;2.15;;
66893;SDS011;53801;55.786;49.142;2023-06-10T00:45:45;1.57;;;0.93;;
66893;SDS011;53801;55.786;49.142;2023-06-10T00:48:10;2.27;;;0.93;;
66893;SDS011;53801;55.786;49.142;2023-06-10T00:50:36;2.72;;;2.10;;
66893;SDS011;53801;55.786;49.142;2023-06-10T00:53:07;1.05;;;0.57;;
66893;SDS011;53801;55.786;49.142;2023-06-10T00:55:33;0.70;;;0.43;;
66893;SDS011;53801;55.786;49.142;2023-06-10T00:57:59;1.73;;;0.98;;
66893;SDS011;53801;55.786;49.142;2023-06-10T01:00:25;1.57;;;0.80;;
66893;SDS011;53801;55.786;49.142;2023-06-10T01:02:51;1.52;;;0.90;;
66893;SDS011;53801;55.786;49.142;2023-06-10T01:05:18;2.20;;;1.90;;
66893;SDS011;53801;55.786;49.142;2023-06-10T01:10:17;4.63;;;2.78;;
66893;SDS011;53801;55.786;49.142;2023-06-10T01:12:47;2.53;;;1.37;;
66893;SDS011;53801;55.786;49.142;2023-06-10T01:15:16;2.60;;;1.27;;
66893;SDS011;53801;55.786;49.142;2023-06-10T01:18:00;1.60;;;0.90;;
66893;SDS011;53801;55.786;49.142;2023-06-10T01:20:27;0.73;;;0.45;;
66893;SDS011;53801;55.786;49.142;2023-06-10T01:22:56;5.65;;;1.30;;
66893;SDS011;53801;55.786;49.142;2023-06-10T01:25:23;7.22;;;3.17;;
66893;SDS011;53801;55.786;49.142;2023-06-10T01:27:57;0.90;;;0.70;;
66893;SDS011;53801;55.786;49.142;2023-06-10T01:30:27;1.20;;;0.80;;
66893;SDS011;53801;55.786;49.142;2023-06-10T01:32:55;0.65;;;0.63;;
66893;SDS011;53801;55.786;49.142;2023-06-10T01:35:21;1.55;;;1.08;;
66893;SDS011;53801;55.786;49.142;2023-06-10T01:37:49;2.83;;;1.60;;
66893;SDS011;53801;55.786;49.142;2023-06-10T01:40:17;0.70;;;0.60;;
66893;SDS011;53801;55.786;49.142;2023-06-10T01:42:42;1.67;;;1.00;;
66893;SDS011;53801;55.786;49.142;2023-06-10T01:45:08;1.07;;;0.90;;
66893;SDS011;53801;55.786;49.142;2023-06-10T01:47:33;0.93;;;0.77;;
66893;SDS011;53801;55.786;49.142;2023-06-10T01:49:59;0.50;;;0.43;;
66893;SDS011;53801;55.786;49.142;2023-06-10T01:52:25;0.93;;;0.40;;
66893;SDS011;53801;55.786;49.142;2023-06-10T01:54:51;3.07;;;0.97;;
66893;SDS011;53801;55.786;49.142;2023-06-10T01:57:16;0.60;;;0.60;;
66893;SDS011;53801;55.786;49.142;2023-06-10T01:59:42;0.70;;;0.50;;
66893;SDS011;53801;55.786;49.142;2023-06-10T02:02:09;0.93;;;0.60;;
66893;SDS011;53801;55.786;49.142;2023-06-10T02:04:35;0.45;;;0.32;;
66893;SDS011;53801;55.786;49.142;2023-06-10T02:07:00;0.60;;;0.50;;
66893;SDS011;53801;55.786;49.142;2023-06-10T02:09:29;0.60;;;0.35;;
66893;SDS011;53801;55.786;49.142;2023-06-10T02:11:54;0.73;;;0.50;;
66893;SDS011;53801;55.786;49.142;2023-06-10T02:14:20;1.57;;;0.70;;
66893;SDS011;53801;55.786;49.142;2023-06-10T02:16:46;1.23;;;0.77;;
66893;SDS011;53801;55.786;49.142;2023-06-10T02:19:12;0.93;;;0.50;;
66893;SDS011;53801;55.786;49.142;2023-06-10T02:21:38;1.70;;;1.10;;
66893;SDS011;53801;55.786;49.142;2023-06-10T02:24:03;1.00;;;0.90;;
66893;SDS011;53801;55.786;49.142;2023-06-10T02:26:32;2.25;;;0.95;;
66893;SDS011;53801;55.786;49.142;2023-06-10T02:28:58;0.70;;;0.50;;
66893;SDS011;53801;55.786;49.142;2023-06-10T02:31:23;0.65;;;0.50;;
66893;SDS011;53801;55.786;49.142;2023-06-10T02:33:50;0.70;;;0.50;;
66893;SDS011;53801;55.786;49.142;2023-06-10T02:36:16;1.95;;;1.02;;
66893;SDS011;53801;55.786;49.142;2023-06-10T02:38:41;2.00;;;0.57;;
66893;SDS011;53801;55.786;49.142;2023-06-10T02:41:07;1.42;;;1.05;;
66893;SDS011;53801;55.786;49.142;2023-06-10T02:43:32;0.50;;;0.30;;
66893;SDS011;53801;55.786;49.142;2023-06-10T02:45:58;1.00;;;0.60;;
66893;SDS011;53801;55.786;49.142;2023-06-10T02:48:25;1.70;;;0.68;;
66893;SDS011;53801;55.786;49.142;2023-06-10T02:50:50;0.65;;;0.52;;
66893;SDS011;53801;55.786;49.142;2023-06-10T02:53:16;0.70;;;0.60;;
66893;SDS011;53801;55.786;49.142;2023-06-10T02:55:41;0.70;;;0.60;;
66893;SDS011;53801;55.786;49.142;2023-06-10T02:58:08;1.83;;;1.08;;
66893;SDS011;53801;55.786;49.142;2023-06-10T03:00:33;2.40;;;1.00;;
66893;SDS011;53801;55.786;49.142;2023-06-10T03:02:59;2.40;;;0.55;;
66893;SDS011;53801;55.786;49.142;2023-06-10T03:05:28;1.20;;;0.50;;
66893;SDS011;53801;55.786;49.142;2023-06-10T03:07:53;2.13;;;0.90;;
66893;SDS011;53801;55.786;49.142;2023-06-10T03:10:19;0.90;;;0.80;;
66893;SDS011;53801;55.786;49.142;2023-06-10T03:12:45;1.88;;;1.05;;
66893;SDS011;53801;55.786;49.142;2023-06-10T03:15:10;1.23;;;0.87;;
66893;SDS011;53801;55.786;49.142;2023-06-10T03:17:42;0.80;;;0.55;;
66893;SDS011;53801;55.786;49.142;2023-06-10T03:20:08;0.50;;;0.37;;
66893;SDS011;53801;55.786;49.142;2023-06-10T03:22:38;1.33;;;0.50;;
66893;SDS011;53801;55.786;49.142;2023-06-10T03:25:06;0.50;;;0.40;;
66893;SDS011;53801;55.786;49.142;2023-06-10T03:27:33;1.27;;;0.67;;
66893;SDS011;53801;55.786;49.142;2023-06-10T03:30:00;0.68;;;0.52;;
66893;SDS011;53801;55.786;49.142;2023-06-10T03:32:25;0.60;;;0.40;;
66893;SDS011;53801;55.786;49.142;2023-06-10T03:34:51;0.80;;;0.60;;
66893;SDS011;53801;55.786;49.142;2023-06-10T03:37:23;0.73;;;0.50;;
66893;SDS011;53801;55.786;49.142;2023-06-10T03:39:49;1.03;;;0.60;;
66893;SDS011;53801;55.786;49.142;2023-06-10T03:42:14;1.40;;;0.70;;
66893;SDS011;53801;55.786;49.142;2023-06-10T03:44:40;0.90;;;0.50;;
66893;SDS011;53801;55.786;49.142;2023-06-10T03:47:05;0.87;;;0.73;;
66893;SDS011;53801;55.786;49.142;2023-06-10T03:49:31;0.60;;;0.43;;
66893;SDS011;53801;55.786;49.142;2023-06-10T03:51:56;1.55;;;1.35;;
66893;SDS011;53801;55.786;49.142;2023-06-10T03:54:22;0.67;;;0.60;;
66893;SDS011;53801;55.786;49.142;2023-06-10T03:56:47;1.00;;;0.60;;
66893;SDS011;53801;55.786;49.142;2023-06-10T03:59:13;0.57;;;0.47;;
66893;SDS011;53801;55.786;49.142;2023-06-10T04:01:39;1.20;;;0.77;;
66893;SDS011;53801;55.786;49.142;2023-06-10T04:04:06;0.98;;;0.68;;
66893;SDS011;53801;55.786;49.142;2023-06-10T04:06:31;0.77;;;0.53;;
66893;SDS011;53801;55.786;49.142;2023-06-10T04:08:57;1.00;;;0.70;;
66893;SDS011;53801;55.786;49.142;2023-06-10T04:11:25;0.80;;;0.60;;
66893;SDS011;53801;55.786;49.142;2023-06-10T04:13:51;1.00;;;0.67;;
66893;SDS011;53801;55.786;49.142;2023-06-10T04:16:21;1.05;;;0.70;;
66893;SDS011;53801;55.786;49.142;2023-06-10T04:18:46;1.50;;;0.93;;
66893;SDS011;53801;55.786;49.142;2023-06-10T04:21:12;1.90;;;0.93;;
66893;SDS011;53801;55.786;49.142;2023-06-10T04:23:37;1.70;;;1.53;;
66893;SDS011;53801;55.786;49.142;2023-06-10T04:26:03;0.70;;;0.50;;
66893;SDS011;53801;55.786;49.142;2023-06-10T04:28:30;0.80;;;0.60;;
66893;SDS011;53801;55.786;49.142;2023-06-10T04:30:56;0.60;;;0.40;;
66893;SDS011;53801;55.786;49.142;2023-06-10T04:33:21;2.30;;;0.43;;
66893;SDS011;53801;55.786;49.142;2023-06-10T04:35:47;1.45;;;0.85;;
66893;SDS011;53801;55.786;49.142;2023-06-10T04:38:13;0.70;;;0.55;;
66893;SDS011;53801;55.786;49.142;2023-06-10T04:40:39;0.40;;;0.30;;
66893;SDS011;53801;55.786;49.142;2023-06-10T04:45:38;3.42;;;0.70;;
66893;SDS011;53801;55.786;49.142;2023-06-10T04:48:03;0.90;;;0.70;;
66893;SDS011;53801;55.786;49.142;2023-06-10T04:50:29;0.70;;;0.57;;
66893;SDS011;53801;55.786;49.142;2023-06-10T04:52:55;10.23;;;5.67;;
66893;SDS011;53801;55.786;49.142;2023-06-10T04:55:22;6.57;;;3.55;;
66893;SDS011;53801;55.786;49.142;2023-06-10T04:57:50;5.78;;;3.90;;
66893;SDS011;53801;55.786;49.142;2023-06-10T05:00:16;6.20;;;3.67;;
66893;SDS011;53801;55.786;49.142;2023-06-10T05:02:42;6.10;;;3.40;;
66893;SDS011;53801;55.786;49.142;2023-06-10T05:05:08;7.43;;;3.28;;
66893;SDS011;53801;55.786;49.142;2023-06-10T05:07:33;5.63;;;3.38;;
66893;SDS011;53801;55.786;49.142;2023-06-10T05:09:59;7.07;;;3.07;;
66893;SDS011;53801;55.786;49.142;2023-06-10T05:12:25;8.02;;;3.53;;
66893;SDS011;53801;55.786;49.142;2023-06-10T05:14:51;5.15;;;2.83;;
66893;SDS011;53801;55.786;49.142;2023-06-10T05:17:16;6.40;;;3.00;;
66893;SDS011;53801;55.786;49.142;2023-06-10T05:19:42;6.68;;;3.30;;
66893;SDS011;53801;55.786;49.142;2023-06-10T05:22:09;8.40;;;4.17;;
66893;SDS011;53801;55.786;49.142;2023-06-10T05:24:34;6.53;;;3.67;;
66893;SDS011;53801;55.786;49.142;2023-06-10T05:26:59;12.10;;;3.27;;
66893;SDS011;53801;55.786;49.142;2023-06-10T05:29:25;6.63;;;3.80;;
66893;SDS011;53801;55.786;49.142;2023-06-10T05:31:53;8.32;;;2.90;;
66893;SDS011;53801;55.786;49.142;2023-06-10T05:34:18;6.15;;;3.38;;
66893;SDS011;53801;55.786;49.142;2023-06-10T05:36:44;7.97;;;3.27;;
66893;SDS011;53801;55.786;49.142;2023-06-10T05:39:09;6.20;;;3.20;;
66893;SDS011;53801;55.786;49.142;2023-06-10T05:41:35;4.93;;;3.20;;
66893;SDS011;53801;55.786;49.142;2023-06-10T05:44:01;10.53;;;3.60;;
66893;SDS011;53801;55.786;49.142;2023-06-10T05:46:26;6.05;;;3.20;;
66893;SDS011;53801;55.786;49.142;2023-06-10T05:48:52;5.57;;;3.23;;
66893;SDS011;53801;55.786;49.142;2023-06-10T05:51:17;5.23;;;3.00;;
66893;SDS011;53801;55.786;49.142;2023-06-10T05:53:43;6.90;;;3.35;;
66893;SDS011;53801;55.786;49.142;2023-06-10T05:56:08;4.57;;;2.97;;
66893;SDS011;53801;55.786;49.142;2023-06-10T05:58:34;5.83;;;3.07;;
66893;SDS011;53801;55.786;49.142;2023-06-10T06:00:59;7.97;;;3.10;;
66893;SDS011;53801;55.786;49.142;2023-06-10T06:03:25;4.95;;;3.03;;
66893;SDS011;53801;55.786;49.142;2023-06-10T06:05:50;5.93;;;3.27;;
66893;SDS011;53801;55.786;49.142;2023-06-10T06:08:16;6.10;;;3.27;;
66893;SDS011;53801;55.786;49.142;2023-06-10T06:10:46;5.32;;;3.20;;
66893;SDS011;53801;55.786;49.142;2023-06-10T06:13:13;6.30;;;3.25;;
66893;SDS011;53801;55.786;49.142;2023-06-10T06:15:38;6.10;;;3.40;;
66893;SDS011;53801;55.786;49.142;2023-06-10T06:18:04;7.03;;;3.70;;
66893;SDS011;53801;55.786;49.142;2023-06-10T06:20:29;6.38;;;3.30;;
66893;SDS011;53801;55.786;49.142;2023-06-10T06:22:55;9.17;;;4.30;;
66893;SDS011;53801;55.786;49.142;2023-06-10T06:25:20;6.10;;;3.63;;
66893;SDS011;53801;55.786;49.142;2023-06-10T06:27:46;7.22;;;4.00;;
66893;SDS011;53801;55.786;49.142;2023-06-10T06:30:11;5.83;;;3.10;;
66893;SDS011;53801;55.786;49.142;2023-06-10T06:32:37;6.37;;;3.77;;
66893;SDS011;53801;55.786;49.142;2023-06-10T06:35:02;7.03;;;4.10;;
66893;SDS011;53801;55.786;49.142;2023-06-10T06:37:29;8.00;;;3.53;;
66893;SDS011;53801;55.786;49.142;2023-06-10T06:39:54;7.82;;;3.22;;
66893;SDS011;53801;55.786;49.142;2023-06-10T06:42:20;7.03;;;3.43;;
66893;SDS011;53801;55.786;49.142;2023-06-10T06:44:46;6.07;;;3.50;;
66893;SDS011;53801;55.786;49.142;2023-06-10T06:47:11;5.30;;;2.70;;
66893;SDS011;53801;55.786;49.142;2023-06-10T06:49:37;8.45;;;4.00;;
66893;SDS011;53801;55.786;49.142;2023-06-10T06:52:03;6.03;;;2.60;;
66893;SDS011;53801;55.786;49.142;2023-06-10T06:54:28;6.20;;;3.10;;
66893;SDS011;53801;55.786;49.142;2023-06-10T06:56:54;5.57;;;2.83;;
66893;SDS011;53801;55.786;49.142;2023-06-10T06:59:20;5.78;;;2.72;;
66893;SDS011;53801;55.786;49.142;2023-06-10T07:01:46;5.97;;;2.43;;
66893;SDS011;53801;55.786;49.142;2023-06-10T07:04:11;5.53;;;2.33;;
66893;SDS011;53801;55.786;49.142;2023-06-10T07:06:37;6.03;;;2.50;;
66893;SDS011;53801;55.786;49.142;2023-06-10T07:09:06;5.28;;;2.38;;
66893;SDS011;53801;55.786;49.142;2023-06-10T07:11:32;4.53;;;2.38;;
66893;SDS011;53801;55.786;49.142;2023-06-10T07:13:58;4.30;;;2.40;;
66893;SDS011;53801;55.786;49.142;2023-06-10T07:16:23;4.37;;;2.37;;
66893;SDS011;53801;55.786;49.142;2023-06-10T07:18:49;5.60;;;2.95;;
66893;SDS011;53801;55.786;49.142;2023-06-10T07:21:14;5.87;;;2.67;;
66893;SDS011;53801;55.786;49.142;2023-06-10T07:23:41;4.33;;;2.47;;
66893;SDS011;53801;55.786;49.142;2023-06-10T07:26:07;4.30;;;2.60;;
66893;SDS011;53801;55.786;49.142;2023-06-10T07:28:33;5.28;;;2.97;;
66893;SDS011;53801;55.786;49.142;2023-06-10T07:30:58;8.82;;;2.80;;
66893;SDS011;53801;55.786;49.142;2023-06-10T07:33:24;6.10;;;2.80;;
66893;SDS011;53801;55.786;49.142;2023-06-10T07:35:49;7.47;;;2.47;;
66893;SDS011;53801;55.786;49.142;2023-06-10T07:38:16;7.35;;;2.72;;
66893;SDS011;53801;55.786;49.142;2023-06-10T07:40:42;5.27;;;2.90;;
66893;SDS011;53801;55.786;49.142;2023-06-10T07:43:07;4.45;;;3.00;;
66893;SDS011;53801;55.786;49.142;2023-06-10T07:45:33;9.77;;;2.80;;
66893;SDS011;53801;55.786;49.142;2023-06-10T07:47:58;6.13;;;2.80;;
66893;SDS011;53801;55.786;49.142;2023-06-10T07:50:24;4.45;;;2.63;;
66893;SDS011;53801;55.786;49.142;2023-06-10T07:52:50;7.93;;;3.20;;
66893;SDS011;53801;55.786;49.142;2023-06-10T07:55:15;5.13;;;3.20;;
66893;SDS011;53801;55.786;49.142;2023-06-10T07:57:41;5.38;;;3.22;;
66893;SDS011;53801;55.786;49.142;2023-06-10T08:00:06;7.57;;;3.60;;
66893;SDS011;53801;55.786;49.142;2023-06-10T08:02:32;6.65;;;3.42;;
66893;SDS011;53801;55.786;49.142;2023-06-10T08:05:00;5.57;;;3.13;;
66893;SDS011;53801;55.786;49.142;2023-06-10T08:07:26;6.35;;;3.67;;
66893;SDS011;53801;55.786;49.142;2023-06-10T08:09:51;5.33;;;3.00;;
66893;SDS011;53801;55.786;49.142;2023-06-10T08:12:17;5.50;;;3.10;;
66893;SDS011;53801;55.786;49.142;2023-06-10T08:14:42;6.05;;;3.25;;
66893;SDS011;53801;55.786;49.142;2023-06-10T08:17:16;5.80;;;2.93;;
66893;SDS011;53801;55.786;49.142;2023-06-10T08:19:42;3.85;;;2.90;;
66893;SDS011;53801;55.786;49.142;2023-06-10T08:22:07;5.00;;;3.17;;
66893;SDS011;53801;55.786;49.142;2023-06-10T08:24:33;4.87;;;3.30;;
66893;SDS011;53801;55.786;49.142;2023-06-10T08:26:58;4.72;;;2.78;;
66893;SDS011;53801;55.786;49.142;2023-06-10T08:29:24;5.28;;;3.00;;
66893;SDS011;53801;55.786;49.142;2023-06-10T08:31:50;12.45;;;11.13;;
66893;SDS011;53801;55.786;49.142;2023-06-10T08:34:15;4.13;;;3.05;;
66893;SDS011;53801;55.786;49.142;2023-06-10T08:36:42;6.57;;;3.53;;
66893;SDS011;53801;55.786;49.142;2023-06-10T08:39:08;4.35;;;2.90;;
66893;SDS011;53801;55.786;49.142;2023-06-10T08:41:35;4.32;;;3.10;;
66893;SDS011;53801;55.786;49.142;2023-06-10T08:44:10;5.35;;;3.03;;
66893;SDS011;53801;55.786;49.142;2023-06-10T08:46:38;8.70;;;3.10;;
66893;SDS011;53801;55.786;49.142;2023-06-10T08:49:05;4.80;;;2.25;;
66893;SDS011;53801;55.786;49.142;2023-06-10T08:51:31;5.78;;;2.80;;
66893;SDS011;53801;55.786;49.142;2023-06-10T08:54:01;5.57;;;2.00;;
66893;SDS011;53801;55.786;49.142;2023-06-10T08:56:28;6.18;;;2.30;;
66893;SDS011;53801;55.786;49.142;2023-06-10T08:58:53;4.47;;;1.73;;
66893;SDS011;53801;55.786;49.142;2023-06-10T09:01:25;5.50;;;2.03;;
66893;SDS011;53801;55.786;49.142;2023-06-10T09:03:51;5.45;;;2.55;;
66893;SDS011;53801;55.786;49.142;2023-06-10T09:06:16;4.50;;;2.00;;
66893;SDS011;53801;55.786;49.142;2023-06-10T09:08:43;8.13;;;2.10;;
66893;SDS011;53801;55.786;49.142;2023-06-10T09:11:08;8.13;;;1.87;;
66893;SDS011;53801;55.786;49.142;2023-06-10T09:13:34;4.68;;;2.05;;
66893;SDS011;53801;55.786;49.142;2023-06-10T09:15:59;4.95;;;1.70;;
66893;SDS011;53801;55.786;49.142;2023-06-10T09:18:27;5.77;;;2.57;;
66893;SDS011;53801;55.786;49.142;2023-06-10T09:20:53;3.75;;;1.92;;
66893;SDS011;53801;55.786;49.142;2023-06-10T09:23:18;7.88;;;2.40;;
66893;SDS011;53801;55.786;49.142;2023-06-10T09:25:44;2.90;;;1.77;;
66893;SDS011;53801;55.786;49.142;2023-06-10T09:28:13;3.80;;;1.70;;
66893;SDS011;53801;55.786;49.142;2023-06-10T09:30:38;4.88;;;1.83;;
66893;SDS011;53801;55.786;49.142;2023-06-10T09:33:09;3.10;;;1.97;;
66893;SDS011;53801;55.786;49.142;2023-06-10T09:35:37;3.22;;;1.52;;
66893;SDS011;53801;55.786;49.142;2023-06-10T09:38:10;7.32;;;2.20;;
66893;SDS011;53801;55.786;49.142;2023-06-10T09:40:40;6.97;;;1.90;;
66893;SDS011;53801;55.786;49.142;2023-06-10T09:43:13;7.78;;;2.25;;
66893;SDS011;53801;55.786;49.142;2023-06-10T09:45:39;6.20;;;1.90;;
66893;SDS011;53801;55.786;49.142;2023-06-10T09:48:05;4.40;;;1.90;;
66893;SDS011;53801;55.786;49.142;2023-06-10T09:50:34;3.47;;;1.60;;
66893;SDS011;53801;55.786;49.142;2023-06-10T09:53:00;3.08;;;1.58;;
66893;SDS011;53801;55.786;49.142;2023-06-10T09:55:27;8.43;;;1.95;;
66893;SDS011;53801;55.786;49.142;2023-06-10T09:57:53;5.43;;;1.57;;
66893;SDS011;53801;55.786;49.142;2023-06-10T10:00:19;4.57;;;1.50;;
66893;SDS011;53801;55.786;49.142;2023-06-10T10:05:13;4.30;;;1.73;;
66893;SDS011;53801;55.786;49.142;2023-06-10T10:07:49;3.75;;;1.50;;
66893;SDS011;53801;55.786;49.142;2023-06-10T10:10:15;7.32;;;1.90;;
66893;SDS011;53801;55.786;49.142;2023-06-10T10:12:48;8.70;;;1.60;;
66893;SDS011;53801;55.786;49.142;2023-06-10T10:18:17;6.60;;;2.80;;
66893;SDS011;53801;55.786;49.142;2023-06-10T10:20:50;9.63;;;2.17;;
66893;SDS011;53801;55.786;49.142;2023-06-10T10:23:18;2.70;;;1.40;;
66893;SDS011;53801;55.786;49.142;2023-06-10T10:25:45;4.18;;;1.63;;
66893;SDS011;53801;55.786;49.142;2023-06-10T10:28:12;4.33;;;1.23;;
66893;SDS011;53801;55.786;49.142;2023-06-10T10:30:39;9.98;;;1.90;;
66893;SDS011;53801;55.786;49.142;2023-06-10T10:35:34;5.80;;;1.38;;
66893;SDS011;53801;55.786;49.142;2023-06-10T10:38:01;10.15;;;2.42;;
66893;SDS011;53801;55.786;49.142;2023-06-10T10:40:27;5.85;;;1.45;;
66893;SDS011;53801;55.786;49.142;2023-06-10T10:42:57;3.10;;;1.65;;
66893;SDS011;53801;55.786;49.142;2023-06-10T10:50:59;7.53;;;2.30;;
66893;SDS011;53801;55.786;49.142;2023-06-10T10:53:25;6.43;;;2.03;;
66893;SDS011;53801;55.786;49.142;2023-06-10T10:59:02;7.72;;;1.67;;
66893;SDS011;53801;55.786;49.142;2023-06-10T11:01:28;6.05;;;2.00;;
66893;SDS011;53801;55.786;49.142;2023-06-10T11:04:06;15.63;;;1.73;;
66893;SDS011;53801;55.786;49.142;2023-06-10T11:06:31;7.85;;;1.80;;
66893;SDS011;53801;55.786;49.142;2023-06-10T11:08:57;2.83;;;1.05;;
66893;SDS011;53801;55.786;49.142;2023-06-10T11:11:24;8.03;;;1.33;;
66893;SDS011;53801;55.786;49.142;2023-06-10T11:13:58;4.45;;;1.30;;
66893;SDS011;53801;55.786;49.142;2023-06-10T11:16:25;7.47;;;2.80;;
66893;SDS011;53801;55.786;49.142;2023-06-10T11:18:53;4.43;;;1.40;;
66893;SDS011;53801;55.786;49.142;2023-06-10T11:21:18;5.13;;;1.20;;
66893;SDS011;53801;55.786;49.142;2023-06-10T11:23:44;3.80;;;1.00;;
66893;SDS011;53801;55.786;49.142;2023-06-10T11:36:20;3.97;;;1.30;;
66893;SDS011;53801;55.786;49.142;2023-06-10T11:38:46;3.75;;;1.25;;
66893;SDS011;53801;55.786;49.142;2023-06-10T11:41:12;2.20;;;1.40;;
66893;SDS011;53801;55.786;49.142;2023-06-10T11:43:45;12.57;;;1.67;;
66893;SDS011;53801;55.786;49.142;2023-06-10T11:46:11;4.22;;;1.23;;
66893;SDS011;53801;55.786;49.142;2023-06-10T11:48:37;2.97;;;1.00;;
66893;SDS011;53801;55.786;49.142;2023-06-10T11:51:06;2.90;;;1.10;;
66893;SDS011;53801;55.786;49.142;2023-06-10T11:53:32;10.00;;;2.40;;
66893;SDS011;53801;55.786;49.142;2023-06-10T11:55:57;6.60;;;1.57;;
66893;SDS011;53801;55.786;49.142;2023-06-10T11:58:23;2.83;;;1.40;;
66893;SDS011;53801;55.786;49.142;2023-06-10T12:00:49;9.73;;;1.80;;
66893;SDS011;53801;55.786;49.142;2023-06-10T12:03:15;2.97;;;1.20;;
66893;SDS011;53801;55.786;49.142;2023-06-10T12:05:59;5.45;;;1.67;;
66893;SDS011;53801;55.786;49.142;2023-06-10T12:08:25;4.13;;;1.20;;
66893;SDS011;53801;55.786;49.142;2023-06-10T12:13:25;2.23;;;0.97;;
66893;SDS011;53801;55.786;49.142;2023-06-10T12:18:25;3.20;;;1.15;;
66893;SDS011;53801;55.786;49.142;2023-06-10T12:20:51;4.70;;;1.20;;
66893;SDS011;53801;55.786;49.142;2023-06-10T12:23:17;7.43;;;1.58;;
66893;SDS011;53801;55.786;49.142;2023-06-10T12:25:51;3.55;;;1.20;;
66893;SDS011;53801;55.786;49.142;2023-06-10T12:28:17;4.63;;;1.27;;
66893;SDS011;53801;55.786;49.142;2023-06-10T12:30:45;4.03;;;1.00;;
66893;SDS011;53801;55.786;49.142;2023-06-10T12:33:20;3.17;;;1.17;;
66893;SDS011;53801;55.786;49.142;2023-06-10T12:35:47;5.38;;;0.95;;
66893;SDS011;53801;55.786;49.142;2023-06-10T12:38:13;2.33;;;1.13;;
66893;SDS011;53801;55.786;49.142;2023-06-10T12:40:39;2.45;;;0.85;;
66893;SDS011;53801;55.786;49.142;2023-06-10T12:43:06;1.95;;;0.95;;
66893;SDS011;53801;55.786;49.142;2023-06-10T12:48:10;4.20;;;1.10;;
66893;SDS011;53801;55.786;49.142;2023-06-10T12:50:39;4.47;;;0.90;;
66893;SDS011;53801;55.786;49.142;2023-06-10T12:53:05;1.77;;;0.80;;
66893;SDS011;53801;55.786;49.142;2023-06-10T12:55:33;2.60;;;0.90;;
66893;SDS011;53801;55.786;49.142;2023-06-10T12:58:00;5.78;;;0.90;;
66893;SDS011;53801;55.786;49.142;2023-06-10T13:00:27;3.63;;;0.90;;
66893;SDS011;53801;55.786;49.142;2023-06-10T13:02:55;2.55;;;0.80;;
66893;SDS011;53801;55.786;49.142;2023-06-10T13:05:21;1.67;;;0.90;;
66893;SDS011;53801;55.786;49.142;2023-06-10T13:07:46;4.47;;;1.27;;
66893;SDS011;53801;55.786;49.142;2023-06-10T13:10:12;7.87;;;1.10;;
66893;SDS011;53801;55.786;49.142;2023-06-10T13:12:38;4.38;;;1.17;;
66893;SDS011;53801;55.786;49.142;2023-06-10T13:15:04;5.20;;;0.83;;
66893;SDS011;53801;55.786;49.142;2023-06-10T13:17:30;3.65;;;1.13;;
66893;SDS011;53801;55.786;49.142;2023-06-10T13:19:55;3.23;;;0.90;;
66893;SDS011;53801;55.786;49.142;2023-06-10T13:22:21;4.18;;;0.77;;
66893;SDS011;53801;55.786;49.142;2023-06-10T13:24:49;6.32;;;1.00;;
66893;SDS011;53801;55.786;49.142;2023-06-10T13:27:14;1.67;;;0.82;;
66893;SDS011;53801;55.786;49.142;2023-06-10T13:29:40;2.67;;;1.10;;
66893;SDS011;53801;55.786;49.142;2023-06-10T13:32:05;4.10;;;0.80;;
66893;SDS011;53801;55.786;49.142;2023-06-10T13:34:31;7.55;;;1.50;;
66893;SDS011;53801;55.786;49.142;2023-06-10T13:36:56;3.03;;;0.90;;
66893;SDS011;53801;55.786;49.142;2023-06-10T13:39:22;2.07;;;0.70;;
66893;SDS011;53801;55.786;49.142;2023-06-10T13:41:51;3.95;;;0.60;;
66893;SDS011;53801;55.786;49.142;2023-06-10T13:44:17;1.92;;;0.80;;
66893;SDS011;53801;55.786;49.142;2023-06-10T13:46:42;5.90;;;1.00;;
66893;SDS011;53801;55.786;49.142;2023-06-10T13:49:08;2.00;;;0.87;;
66893;SDS011;53801;55.786;49.142;2023-06-10T13:51:33;2.00;;;0.77;;
66893;SDS011;53801;55.786;49.142;2023-06-10T13:53:59;5.77;;;1.00;;
66893;SDS011;53801;55.786;49.142;2023-06-10T13:56:24;3.30;;;0.80;;
66893;SDS011;53801;55.786;49.142;2023-06-10T13:58:50;2.20;;;0.98;;
66893;SDS011;53801;55.786;49.142;2023-06-10T14:01:16;8.47;;;1.63;;
66893;SDS011;53801;55.786;49.142;2023-06-10T14:03:41;3.40;;;0.80;;
66893;SDS011;53801;55.786;49.142;2023-06-10T14:06:08;2.15;;;0.68;;
66893;SDS011;53801;55.786;49.142;2023-06-10T14:08:33;3.92;;;0.80;;
66893;SDS011;53801;55.786;49.142;2023-06-10T14:10:59;4.00;;;0.97;;
66893;SDS011;53801;55.786;49.142;2023-06-10T14:13:25;7.07;;;1.00;;
66893;SDS011;53801;55.786;49.142;2023-06-10T14:15:51;2.27;;;0.80;;
66893;SDS011;53801;55.786;49.142;2023-06-10T14:18:17;6.50;;;1.00;;
66893;SDS011;53801;55.786;49.142;2023-06-10T14:20:43;6.53;;;1.07;;
66893;SDS011;53801;55.786;49.142;2023-06-10T14:23:08;10.38;;;0.90;;
66893;SDS011;53801;55.786;49.142;2023-06-10T14:25:34;9.53;;;1.20;;
66893;SDS011;53801;55.786;49.142;2023-06-10T14:27:59;1.80;;;0.60;;
66893;SDS011;53801;55.786;49.142;2023-06-10T14:30:25;4.73;;;0.93;;
66893;SDS011;53801;55.786;49.142;2023-06-10T14:32:51;4.55;;;0.90;;
66893;SDS011;53801;55.786;49.142;2023-06-10T14:35:16;5.40;;;1.70;;
66893;SDS011;53801;55.786;49.142;2023-06-10T14:37:42;8.43;;;2.37;;
66893;SDS011;53801;55.786;49.142;2023-06-10T14:40:07;3.65;;;1.10;;
66893;SDS011;53801;55.786;49.142;2023-06-10T14:42:33;9.37;;;1.07;;
66893;SDS011;53801;55.786;49.142;2023-06-10T14:44:58;2.17;;;0.63;;
66893;SDS011;53801;55.786;49.142;2023-06-10T14:47:24;2.43;;;1.10;;
66893;SDS011;53801;55.786;49.142;2023-06-10T14:49:50;4.25;;;0.52;;
66893;SDS011;53801;55.786;49.142;2023-06-10T14:52:15;4.43;;;0.87;;
66893;SDS011;53801;55.786;49.142;2023-06-10T14:54:41;3.30;;;0.70;;
66893;SDS011;53801;55.786;49.142;2023-06-10T14:57:10;4.70;;;0.90;;
66893;SDS011;53801;55.786;49.142;2023-06-10T14:59:36;3.17;;;0.70;;
66893;SDS011;53801;55.786;49.142;2023-06-10T15:02:02;6.72;;;1.42;;
66893;SDS011;53801;55.786;49.142;2023-06-10T15:04:27;1.43;;;0.50;;
66893;SDS011;53801;55.786;49.142;2023-06-10T15:06:53;1.63;;;0.60;;
66893;SDS011;53801;55.786;49.142;2023-06-10T15:09:19;1.40;;;0.60;;